Reykjavik, Iceland
Current Conditions -  °F | °C
As of 4:00 PM on Wednesday 26 Nov 2014 (Local Time) from BIRK Reporting Station
Snow Showers Snow Showers  
Wind Chill: -3°   Ceiling: 4100
Heat Index:   Visibility: 6mi
Dew Point: -1°   Wind: 10mph
Humidity: 87%   Direction: 100°E
Pressure: 29.47"   Gusts: NA
Location:  64.14°N, 21.92°W
Report Text: BIRK 261600Z 10009KT 9999 -SHSN FEW033 BKN041 01/M01 Q0998 R19/390195
Loading
Personal Weather Stations






























Interactive Weather Map New forecast layout! Learn more

10-Day Weather Forecast

Advertisements
Track Severe Weather on mobile